createdAt,value
2022-11-01T00:01:09.706Z,75.45
2022-11-01T00:03:42.053Z,75.43
2022-11-01T00:06:18.744Z,75.42
2022-11-01T00:08:50.813Z,75.32
2022-11-01T00:11:23.070Z,75.40
2022-11-01T00:13:54.975Z,75.46
2022-11-01T00:16:27.127Z,75.48
2022-11-01T00:18:59.288Z,75.64
2022-11-01T00:21:31.197Z,75.75
2022-11-01T00:24:03.124Z,75.85
2022-11-01T00:26:35.187Z,75.70
2022-11-01T00:29:08.540Z,75.73
2022-11-01T00:31:42.734Z,75.71
2022-11-01T00:34:14.669Z,75.87
2022-11-01T00:36:46.682Z,75.98
2022-11-01T00:39:18.686Z,75.98
2022-11-01T00:41:51.696Z,75.93
2022-11-01T00:44:23.697Z,76.02
2022-11-01T00:46:55.646Z,76.08
2022-11-01T00:49:28.026Z,76.18
2022-11-01T00:51:59.968Z,76.23
2022-11-01T00:54:31.876Z,76.57
2022-11-01T00:57:04.001Z,76.78
2022-11-01T00:59:40.648Z,76.90
2022-11-01T01:02:13.227Z,77.00
2022-11-01T01:04:48.527Z,76.98
2022-11-01T01:07:20.566Z,77.12
2022-11-01T01:09:52.479Z,77.31
2022-11-01T01:12:24.808Z,77.29
2022-11-01T01:14:56.683Z,77.35
2022-11-01T01:17:31.310Z,77.38
2022-11-01T01:20:07.573Z,77.56
2022-11-01T01:22:39.505Z,77.64
2022-11-01T01:25:12.303Z,77.74
2022-11-01T01:27:44.337Z,77.77
2022-11-01T01:30:16.730Z,78.04
2022-11-01T01:32:48.854Z,78.37
2022-11-01T01:35:21.202Z,78.24
2022-11-01T01:37:53.332Z,78.31
2022-11-01T01:40:25.217Z,78.24
2022-11-01T01:42:57.086Z,78.47
2022-11-01T01:45:40.668Z,78.68
2022-11-01T01:48:22.574Z,78.80
2022-11-01T01:50:59.762Z,78.81
2022-11-01T01:53:35.265Z,78.87
2022-11-01T01:56:12.996Z,78.85
2022-11-01T01:58:47.330Z,78.84
2022-11-01T02:01:19.401Z,78.56
2022-11-01T02:03:53.009Z,78.61
2022-11-01T02:06:27.116Z,78.58
2022-11-01T02:09:01.677Z,78.71
2022-11-01T02:11:33.714Z,78.84
2022-11-01T02:14:06.183Z,78.94
2022-11-01T02:16:53.308Z,78.93
2022-11-01T02:19:55.979Z,79.19
2022-11-01T02:22:45.429Z,79.20
2022-11-01T02:25:51.508Z,79.28
2022-11-01T02:28:40.756Z,79.42
2022-11-01T02:31:33.134Z,79.40
2022-11-01T02:34:06.283Z,79.37
2022-11-01T02:36:45.530Z,79.58
2022-11-01T02:39:25.232Z,79.83
2022-11-01T02:42:04.544Z,79.93
2022-11-01T02:44:41.209Z,80.08
2022-11-01T02:47:14.218Z,79.89
2022-11-01T02:49:49.419Z,80.05
2022-11-01T02:52:24.856Z,80.00
2022-11-01T02:55:00.263Z,80.07
2022-11-01T02:57:37.311Z,80.07
2022-11-01T03:00:23.796Z,80.15
2022-11-01T03:03:05.906Z,80.20
2022-11-01T03:05:47.094Z,80.34
2022-11-01T03:08:31.915Z,80.97
2022-11-01T03:11:12.781Z,81.33
2022-11-01T03:13:59.213Z,81.61
2022-11-01T03:16:36.942Z,82.61
2022-11-01T03:19:21.806Z,83.82
2022-11-01T03:22:00.583Z,83.53
2022-11-01T03:24:36.483Z,83.27
2022-11-01T03:27:16.851Z,83.67
2022-11-01T03:29:56.985Z,84.60
2022-11-01T03:32:33.765Z,84.21
2022-11-01T03:35:09.784Z,84.81
2022-11-01T03:37:45.274Z,84.74
2022-11-01T03:40:20.348Z,84.69
2022-11-01T03:42:55.701Z,84.32
2022-11-01T03:45:29.416Z,84.83
2022-11-01T03:48:03.141Z,84.34
2022-11-01T03:50:37.179Z,84.35
2022-11-01T03:53:09.407Z,84.42
2022-11-01T03:55:41.700Z,84.52
2022-11-01T03:58:13.996Z,84.80
2022-11-01T04:00:47.804Z,84.48
2022-11-01T04:03:19.789Z,84.50
2022-11-01T04:05:54.829Z,84.43
2022-11-01T04:08:27.264Z,84.91
2022-11-01T04:10:59.284Z,85.14
2022-11-01T04:13:31.892Z,85.25
2022-11-01T04:16:23.907Z,85.27
2022-11-01T04:19:17.087Z,85.04
2022-11-01T04:21:49.367Z,85.45
2022-11-01T04:24:21.880Z,85.53
2022-11-01T04:26:54.199Z,85.64
2022-11-01T04:29:26.174Z,85.75
2022-11-01T04:31:58.169Z,85.72
2022-11-01T04:34:45.774Z,85.97
2022-11-01T04:37:18.124Z,85.91
2022-11-01T04:39:52.581Z,85.88
2022-11-01T04:42:24.757Z,86.35
2022-11-01T04:44:56.733Z,86.75
2022-11-01T04:47:28.725Z,87.06
2022-11-01T04:50:00.677Z,87.00
2022-11-01T04:52:32.975Z,86.86
2022-11-01T04:55:05.426Z,86.90
2022-11-01T04:57:41.865Z,87.31
2022-11-01T05:00:16.291Z,87.39
2022-11-01T05:02:48.264Z,87.37
2022-11-01T05:05:20.670Z,87.69
2022-11-01T05:07:52.761Z,87.73
2022-11-01T05:10:24.711Z,87.86
2022-11-01T05:12:56.916Z,88.41
2022-11-01T05:15:29.325Z,87.86
2022-11-01T05:18:01.944Z,88.74
2022-11-01T05:20:34.173Z,88.54
2022-11-01T05:23:07.513Z,88.92
2022-11-01T05:25:39.446Z,88.76
2022-11-01T05:28:14.903Z,88.81
2022-11-01T05:30:46.828Z,88.97
2022-11-01T05:33:19.067Z,89.21
2022-11-01T05:35:50.980Z,89.71
2022-11-01T05:38:22.996Z,89.55
2022-11-01T05:40:54.952Z,89.64
2022-11-01T05:43:29.719Z,89.82
2022-11-01T05:46:04.089Z,89.62
2022-11-01T05:48:36.250Z,89.85
2022-11-01T05:51:08.522Z,89.97
2022-11-01T05:53:40.614Z,89.86
2022-11-01T05:56:12.545Z,89.82
2022-11-01T05:58:46.826Z,89.85
2022-11-01T06:01:18.859Z,90.09
2022-11-01T06:03:53.007Z,90.57
2022-11-01T06:06:24.924Z,90.38
2022-11-01T06:08:57.850Z,90.58
2022-11-01T06:11:30.488Z,90.77
2022-11-01T06:14:02.379Z,90.85
2022-11-01T06:16:35.010Z,91.21
2022-11-01T06:19:07.054Z,91.08
2022-11-01T06:21:38.883Z,91.78
2022-11-01T06:24:12.900Z,91.90
2022-11-01T06:26:46.423Z,91.82
2022-11-01T06:29:18.717Z,92.73
2022-11-01T06:31:50.877Z,92.73
2022-11-01T06:34:22.929Z,92.51
2022-11-01T06:36:54.881Z,92.30
2022-11-01T06:39:28.049Z,92.71
2022-11-01T06:42:01.182Z,92.56
2022-11-01T06:44:33.313Z,92.39
2022-11-01T06:47:05.322Z,93.08
2022-11-01T06:49:37.291Z,92.83
2022-11-01T06:52:09.774Z,93.07
2022-11-01T06:54:41.880Z,92.91
2022-11-01T06:57:14.706Z,92.79
2022-11-01T06:59:46.625Z,92.96
2022-11-01T07:02:25.686Z,92.79
2022-11-01T07:05:00.657Z,92.83
2022-11-01T07:07:33.006Z,92.88
2022-11-01T07:10:05.670Z,92.87
2022-11-01T07:12:37.658Z,93.48
2022-11-01T07:15:11.318Z,93.30
2022-11-01T07:17:44.153Z,93.29
2022-11-01T07:20:16.230Z,93.76
2022-11-01T07:22:49.446Z,93.64
2022-11-01T07:25:21.441Z,93.87
2022-11-01T07:27:53.374Z,94.00
2022-11-01T07:30:25.497Z,94.22
2022-11-01T07:33:00.464Z,94.14
2022-11-01T07:35:33.381Z,94.18
2022-11-01T07:38:09.813Z,93.99
2022-11-01T07:40:49.437Z,94.30
2022-11-01T07:43:21.780Z,94.19
2022-11-01T07:45:53.814Z,93.95
2022-11-01T07:48:25.898Z,94.01
2022-11-01T07:51:05.695Z,94.18
2022-11-01T07:53:38.471Z,93.99
2022-11-01T07:56:10.939Z,94.08
2022-11-01T07:58:43.674Z,94.04
2022-11-01T08:01:16.105Z,93.79
2022-11-01T08:03:49.336Z,93.76
2022-11-01T08:08:54.119Z,94.18
2022-11-01T08:11:26.083Z,94.20
2022-11-01T08:14:02.828Z,94.23
2022-11-01T08:16:38.109Z,94.17
2022-11-01T08:19:11.528Z,94.12
2022-11-01T08:21:44.471Z,94.05
2022-11-01T08:24:16.571Z,94.20
2022-11-01T08:26:54.126Z,94.16
2022-11-01T08:29:26.048Z,94.30
2022-11-01T08:31:58.057Z,94.28
2022-11-01T08:34:30.917Z,94.41
2022-11-01T08:37:06.741Z,94.36
2022-11-01T08:39:38.644Z,94.68
2022-11-01T08:42:12.690Z,94.67
2022-11-01T08:44:44.721Z,94.77
2022-11-01T08:47:16.900Z,94.82
2022-11-01T08:49:48.889Z,95.00
2022-11-01T08:52:20.867Z,94.64
2022-11-01T08:54:52.822Z,94.61
2022-11-01T08:57:24.971Z,94.75
2022-11-01T09:00:00.028Z,94.32
2022-11-01T09:02:32.482Z,94.18
2022-11-01T09:05:06.635Z,94.20
2022-11-01T09:07:39.885Z,94.13
2022-11-01T09:10:13.454Z,94.28
2022-11-01T09:12:46.541Z,94.04
2022-11-01T09:15:18.860Z,93.91
2022-11-01T09:17:50.758Z,93.80
2022-11-01T09:20:24.579Z,93.92
2022-11-01T09:22:56.590Z,93.81
2022-11-01T09:25:30.729Z,93.62
2022-11-01T09:28:02.879Z,93.39
2022-11-01T09:30:35.018Z,93.51
2022-11-01T09:33:08.914Z,93.48
2022-11-01T09:35:40.783Z,93.56
2022-11-01T09:38:12.751Z,93.57
2022-11-01T09:40:47.028Z,93.44
2022-11-01T09:43:24.887Z,93.29
2022-11-01T09:45:59.434Z,92.91
2022-11-01T09:48:34.312Z,92.96
2022-11-01T09:51:11.925Z,92.76
2022-11-01T09:53:44.250Z,92.52
2022-11-01T09:56:22.746Z,92.58
2022-11-01T09:59:02.963Z,92.20
2022-11-01T10:01:49.556Z,91.41
2022-11-01T10:04:46.330Z,91.13
2022-11-01T10:07:25.297Z,91.25
2022-11-01T10:10:12.873Z,90.79
2022-11-01T10:13:01.201Z,90.79
2022-11-01T10:15:51.030Z,90.66
2022-11-01T10:18:30.407Z,90.28
2022-11-01T10:21:06.203Z,89.99
2022-11-01T10:23:48.137Z,90.46
2022-11-01T10:26:27.882Z,88.48
2022-11-01T10:29:08.948Z,85.35
2022-11-01T10:31:51.851Z,83.32
2022-11-01T10:34:29.792Z,81.71
2022-11-01T10:37:15.772Z,79.74
2022-11-01T10:39:58.966Z,76.43
2022-11-01T10:42:33.689Z,72.20
2022-11-01T10:45:09.274Z,68.51
2022-11-01T10:47:43.523Z,68.52
2022-11-01T10:50:22.009Z,68.11
2022-11-01T10:52:57.434Z,68.63
2022-11-01T10:55:35.400Z,65.53
2022-11-01T10:58:14.586Z,63.09
2022-11-01T11:00:47.416Z,63.18
2022-11-01T11:03:24.429Z,60.80
2022-11-01T11:06:01.095Z,61.18
2022-11-01T11:08:34.902Z,60.95
2022-11-01T11:11:14.097Z,58.13
2022-11-01T11:13:50.230Z,58.77
2022-11-01T11:16:31.329Z,59.16
2022-11-01T11:19:19.484Z,60.03
2022-11-01T11:21:54.091Z,60.36
2022-11-01T11:24:31.859Z,60.29
2022-11-01T11:27:11.807Z,60.91
2022-11-01T11:29:49.277Z,61.43
2022-11-01T11:32:25.111Z,61.58
2022-11-01T11:34:59.534Z,61.02
2022-11-01T11:37:35.972Z,61.45
2022-11-01T11:40:21.100Z,61.30
2022-11-01T11:42:54.964Z,60.68
2022-11-01T11:45:29.886Z,60.20
2022-11-01T11:48:23.971Z,59.84
2022-11-01T11:51:04.261Z,59.69
2022-11-01T11:53:36.241Z,59.88
2022-11-01T11:56:14.659Z,60.44
2022-11-01T11:58:50.208Z,60.38
2022-11-01T12:01:25.946Z,59.98
2022-11-01T12:04:00.802Z,60.47
2022-11-01T12:06:38.885Z,60.65
2022-11-01T12:09:43.926Z,60.97
2022-11-01T12:12:23.821Z,61.42
2022-11-01T12:14:56.806Z,61.29
2022-11-01T12:17:46.931Z,61.06
2022-11-01T12:20:20.950Z,60.77
2022-11-01T12:22:59.475Z,60.37
2022-11-01T12:25:32.913Z,59.87
2022-11-01T12:32:54.348Z,60.42
2022-11-01T12:38:54.538Z,60.61
2022-11-01T12:42:37.246Z,60.87
2022-11-01T12:45:53.586Z,61.13
2022-11-01T12:57:15.472Z,62.21
2022-11-01T13:04:59.440Z,62.18
2022-11-01T13:12:17.436Z,62.53
2022-11-01T13:24:15.789Z,62.76
2022-11-01T13:36:13.522Z,62.78
2022-11-01T13:43:18.104Z,62.35
2022-11-01T13:52:01.530Z,61.92
2022-11-01T13:54:40.670Z,61.71
2022-11-01T13:57:17.414Z,61.86
2022-11-01T13:59:57.438Z,61.82
2022-11-01T14:02:53.451Z,62.10
2022-11-01T14:05:38.606Z,62.14
2022-11-01T14:08:32.549Z,62.06
2022-11-01T14:11:04.427Z,62.10
2022-11-01T14:13:40.206Z,62.11
2022-11-01T14:16:29.866Z,62.42
2022-11-01T14:19:22.795Z,62.78
2022-11-01T14:21:58.136Z,62.84
2022-11-01T14:24:35.156Z,62.80
2022-11-01T14:27:23.077Z,63.04
2022-11-01T14:29:58.399Z,63.55
2022-11-01T14:32:32.797Z,63.94
2022-11-01T14:35:26.270Z,64.23
2022-11-01T14:41:55.999Z,64.93
2022-11-01T14:49:19.080Z,66.06
2022-11-01T15:05:17.453Z,67.99
2022-11-01T15:13:08.802Z,68.80
2022-11-01T15:20:52.041Z,69.88
2022-11-01T15:28:29.639Z,70.66
2022-11-01T15:53:57.669Z,73.63
2022-11-01T16:01:15.747Z,74.23
2022-11-01T16:04:49.782Z,74.40
2022-11-01T16:07:45.044Z,74.73
2022-11-01T16:14:44.566Z,75.44
2022-11-01T16:26:33.845Z,76.62
2022-11-01T16:34:18.351Z,77.15
2022-11-01T16:36:50.370Z,77.27
2022-11-01T16:39:58.154Z,77.36
2022-11-01T16:42:37.163Z,77.41
2022-11-01T16:49:29.104Z,77.87
2022-11-01T16:52:01.097Z,78.01
2022-11-01T16:54:33.175Z,78.09
2022-11-01T16:58:16.940Z,78.00
2022-11-01T17:10:19.262Z,79.06
2022-11-01T17:12:51.462Z,79.17
2022-11-01T17:16:06.112Z,79.43
2022-11-01T17:23:15.847Z,79.55
2022-11-01T17:30:58.438Z,79.94
2022-11-01T17:39:06.562Z,80.46
2022-11-01T17:41:45.644Z,80.79
2022-11-01T17:44:19.296Z,80.91
2022-11-01T17:46:51.679Z,81.11
2022-11-01T17:50:07.830Z,81.54
2022-11-01T17:52:47.399Z,81.49
2022-11-01T17:55:19.509Z,81.48
2022-11-01T17:57:58.037Z,81.48
2022-11-01T18:00:30.150Z,81.80
2022-11-01T18:43:47.965Z,84.57
2022-11-01T18:49:30.315Z,84.37
2022-11-01T18:53:09.591Z,84.96
2022-11-01T18:55:41.777Z,85.01
2022-11-01T18:59:40.701Z,84.97
2022-11-01T19:02:22.757Z,85.16
2022-11-01T19:05:36.665Z,85.36
2022-11-01T19:13:37.591Z,85.44
2022-11-01T19:24:51.178Z,86.27
2022-11-01T19:27:30.507Z,86.36
2022-11-01T19:35:02.519Z,86.68
2022-11-01T19:37:37.439Z,86.86
2022-11-01T19:41:01.789Z,86.79
2022-11-01T19:43:35.308Z,86.88
2022-11-01T19:51:11.037Z,87.80
2022-11-01T19:54:02.477Z,87.48
2022-11-01T19:56:34.691Z,87.76
2022-11-01T20:00:10.047Z,87.87
2022-11-01T20:02:43.980Z,88.10
2022-11-01T20:19:17.394Z,88.56
2022-11-01T20:22:17.280Z,88.81
2022-11-01T20:25:38.269Z,88.71
2022-11-01T20:37:40.346Z,89.00
2022-11-01T20:41:04.155Z,89.08
2022-11-01T20:43:42.276Z,89.20
2022-11-01T20:46:43.754Z,89.21
2022-11-01T20:49:15.855Z,89.27
2022-11-01T20:51:47.904Z,89.28
2022-11-01T20:54:23.881Z,89.26
2022-11-01T20:56:55.921Z,89.37
2022-11-01T20:59:34.302Z,89.31
2022-11-01T21:02:47.045Z,89.40
2022-11-01T21:05:27.532Z,89.45
2022-11-01T21:08:26.330Z,89.62
2022-11-01T21:12:01.587Z,89.54
2022-11-01T21:14:40.310Z,89.67
2022-11-01T21:21:46.988Z,89.90
2022-11-01T21:26:11.334Z,90.12
2022-11-01T21:29:31.213Z,90.25
2022-11-01T21:32:03.519Z,90.23
2022-11-01T21:34:36.222Z,90.39
2022-11-01T21:37:15.124Z,90.27
2022-11-01T21:39:47.490Z,90.36
2022-11-01T21:42:41.584Z,90.30
2022-11-01T21:49:41.685Z,90.52
2022-11-01T21:53:22.223Z,90.41
2022-11-01T22:00:30.509Z,90.63
2022-11-01T22:03:03.498Z,90.69
2022-11-01T22:05:42.307Z,90.77
2022-11-01T22:08:14.300Z,90.64
2022-11-01T22:10:52.383Z,90.75
2022-11-01T22:13:24.389Z,90.69
2022-11-01T22:16:03.345Z,90.92
2022-11-01T22:18:35.400Z,91.04
2022-11-01T22:21:26.391Z,90.80
2022-11-01T22:28:28.875Z,90.89
2022-11-01T22:31:00.983Z,91.04
2022-11-01T22:38:38.997Z,91.10
2022-11-01T22:45:25.395Z,91.01
2022-11-01T22:48:03.809Z,91.00
2022-11-01T22:55:28.381Z,91.12
2022-11-01T22:58:52.196Z,91.10
2022-11-01T23:01:34.373Z,91.23
2022-11-01T23:09:26.535Z,90.90
2022-11-01T23:12:17.652Z,90.88
2022-11-01T23:15:55.730Z,90.86
2022-11-01T23:18:37.580Z,90.91
2022-11-01T23:22:02.319Z,91.17
2022-11-01T23:24:40.655Z,91.17
2022-11-01T23:32:06.153Z,91.27
2022-11-01T23:34:44.561Z,91.40
2022-11-01T23:41:38.975Z,91.68
2022-11-01T23:49:19.058Z,91.63
2022-11-01T23:51:51.309Z,91.67
2022-11-01T23:54:35.068Z,91.58
2022-11-01T23:57:13.295Z,91.61
2022-11-01T23:59:45.145Z,91.81
